Time;durP1;ratioP1;P1;durP2;ratioP2;P2;SDS_P1;SDS_P2;PMS_P1;PMS_P2;Temp;Humidity;BMP_temperature;BMP_pressure;BME280_temperature;BME280_humidity;BME280_pressure;Samples;Min_cycle;Max_cycle;Signal;HPM_P1;HPM_P2
2021/12/03 00:00:57;;;;;;;27.15;9.65;;;;;;;;;;5008727;28;20028;-67
2021/12/03 00:03:22;;;;;;;25.50;8.75;;;;;;;;;;5009335;28;20372;-67
2021/12/03 00:05:50;;;;;;;26.23;9.75;;;;;;;;;;5009125;28;20366;-66
2021/12/03 00:08:15;;;;;;;22.05;8.70;;;;;;;;;;5008657;28;20335;-66
2021/12/03 00:10:42;;;;;;;24.35;9.95;;;;;;;;;;4990899;28;20355;-67
2021/12/03 00:13:07;;;;;;;29.27;10.00;;;;;;;;;;5008418;28;20374;-66
2021/12/03 00:15:35;;;;;;;24.98;9.32;;;;;;;;;;5008839;28;20108;-66
2021/12/03 00:18:00;;;;;;;29.02;9.15;;;;;;;;;;5008331;28;20414;-66
2021/12/03 00:20:26;;;;;;;28.20;9.10;;;;;;;;;;5008515;28;20527;-66
2021/12/03 00:22:56;;;;;;;28.08;9.65;;;;;;;;;;5009007;28;20107;-67
2021/12/03 00:25:22;;;;;;;19.42;7.80;;;;;;;;;;5007160;28;20517;-66
2021/12/03 00:27:47;;;;;;;21.42;7.32;;;;;;;;;;4990463;28;20447;-67
2021/12/03 00:30:14;;;;;;;20.80;7.68;;;;;;;;;;5008355;28;20517;-66
2021/12/03 00:32:41;;;;;;;28.60;8.38;;;;;;;;;;5009067;28;20465;-67
2021/12/03 00:35:08;;;;;;;19.75;8.95;;;;;;;;;;4990342;28;20024;-66
2021/12/03 00:37:33;;;;;;;19.38;8.15;;;;;;;;;;5008529;28;20059;-66
2021/12/03 00:39:59;;;;;;;24.83;8.85;;;;;;;;;;5008831;28;20416;-66
2021/12/03 00:42:27;;;;;;;26.60;8.07;;;;;;;;;;5008403;28;20055;-66
2021/12/03 00:44:55;;;;;;;23.42;7.60;;;;;;;;;;5010664;28;20429;-67
2021/12/03 00:47:21;;;;;;;21.23;6.97;;;;;;;;;;5011924;28;20140;-67
2021/12/03 00:49:46;;;;;;;26.48;7.88;;;;;;;;;;5011901;28;20350;-66
2021/12/03 00:52:12;;;;;;;24.58;8.00;;;;;;;;;;5011907;28;20399;-66
2021/12/03 00:54:37;;;;;;;19.25;7.53;;;;;;;;;;4994272;28;20432;-66
2021/12/03 00:57:03;;;;;;;16.05;7.00;;;;;;;;;;5011345;28;20419;-66
2021/12/03 00:59:29;;;;;;;22.33;7.78;;;;;;;;;;5011808;28;20348;-66
2021/12/03 01:01:55;;;;;;;21.05;7.32;;;;;;;;;;5005596;28;20036;-66
2021/12/03 01:04:20;;;;;;;21.42;6.47;;;;;;;;;;4994929;28;20431;-67
2021/12/03 01:06:45;;;;;;;17.92;5.90;;;;;;;;;;4992939;28;21699;-67
2021/12/03 01:09:11;;;;;;;17.33;6.72;;;;;;;;;;4992106;28;20396;-66
2021/12/03 01:11:36;;;;;;;15.02;6.60;;;;;;;;;;4991744;28;20432;-66
2021/12/03 01:14:02;;;;;;;15.90;5.93;;;;;;;;;;4992431;28;20432;-66
2021/12/03 01:16:29;;;;;;;17.25;6.00;;;;;;;;;;4991519;28;20037;-66
2021/12/03 01:18:55;;;;;;;14.82;6.78;;;;;;;;;;4991667;28;20052;-68
2021/12/03 01:21:20;;;;;;;14.75;6.05;;;;;;;;;;4973919;28;20483;-66
2021/12/03 01:23:46;;;;;;;16.52;6.32;;;;;;;;;;4991587;28;20415;-66
2021/12/03 01:26:12;;;;;;;16.98;6.40;;;;;;;;;;4992148;28;20447;-66
2021/12/03 01:28:37;;;;;;;14.30;5.55;;;;;;;;;;4991585;28;20048;-67
2021/12/03 01:31:03;;;;;;;19.27;7.80;;;;;;;;;;4991273;28;20052;-67
2021/12/03 01:33:28;;;;;;;17.13;6.85;;;;;;;;;;4991467;28;20460;-66
2021/12/03 01:35:54;;;;;;;20.58;6.45;;;;;;;;;;4973788;28;20100;-66
2021/12/03 01:38:19;;;;;;;14.65;6.18;;;;;;;;;;4992326;28;20373;-66
2021/12/03 01:40:45;;;;;;;16.45;6.07;;;;;;;;;;4992245;28;20432;-66
2021/12/03 01:43:14;;;;;;;16.13;5.68;;;;;;;;;;4991540;28;20451;-67
2021/12/03 01:45:40;;;;;;;12.88;4.80;;;;;;;;;;4992234;28;20114;-66
2021/12/03 01:48:06;;;;;;;15.45;5.25;;;;;;;;;;4992309;28;20348;-67
2021/12/03 01:50:38;;;;;;;11.40;4.45;;;;;;;;;;4991035;28;20438;-66
2021/12/03 01:53:08;;;;;;;12.25;4.82;;;;;;;;;;4973388;28;20363;-67
2021/12/03 01:55:34;;;;;;;11.00;4.32;;;;;;;;;;4990831;28;20436;-67
2021/12/03 01:57:59;;;;;;;11.98;4.57;;;;;;;;;;4990492;28;20309;-66
2021/12/03 02:00:40;;;;;;;12.80;5.40;;;;;;;;;;4992453;28;20371;-67
2021/12/03 02:03:07;;;;;;;12.30;5.07;;;;;;;;;;4990736;28;20426;-66
2021/12/03 02:05:33;;;;;;;14.55;5.10;;;;;;;;;;4991222;28;20025;-66
2021/12/03 02:07:58;;;;;;;15.23;5.43;;;;;;;;;;4990939;28;20029;-66
2021/12/03 02:10:24;;;;;;;10.23;4.25;;;;;;;;;;4991011;28;20486;-67
2021/12/03 02:12:51;;;;;;;14.27;3.80;;;;;;;;;;4972927;28;20321;-66
2021/12/03 02:15:16;;;;;;;11.82;4.95;;;;;;;;;;4973204;28;20336;-67
2021/12/03 02:17:41;;;;;;;11.70;4.60;;;;;;;;;;4990870;28;20313;-66
2021/12/03 02:20:09;;;;;;;15.57;4.68;;;;;;;;;;4990607;28;20390;-66
2021/12/03 02:22:36;;;;;;;14.85;4.80;;;;;;;;;;4990449;28;20492;-66
2021/12/03 02:25:01;;;;;;;10.05;4.72;;;;;;;;;;4990600;28;20379;-67
2021/12/03 02:27:27;;;;;;;12.90;4.90;;;;;;;;;;4990245;28;20060;-66
2021/12/03 02:29:52;;;;;;;10.68;3.78;;;;;;;;;;4990109;28;20385;-66
2021/12/03 02:32:17;;;;;;;10.82;4.13;;;;;;;;;;4990565;28;20439;-67
2021/12/03 02:34:43;;;;;;;11.35;3.88;;;;;;;;;;4990325;28;20033;-66
2021/12/03 02:37:08;;;;;;;7.50;2.80;;;;;;;;;;4990453;28;20406;-67
2021/12/03 02:39:33;;;;;;;11.85;4.40;;;;;;;;;;4990202;28;20324;-67
2021/12/03 02:41:59;;;;;;;8.43;3.70;;;;;;;;;;4972800;28;20464;-66
2021/12/03 02:44:24;;;;;;;11.10;3.60;;;;;;;;;;4990295;28;20336;-66
2021/12/03 02:46:50;;;;;;;9.05;4.13;;;;;;;;;;4972456;28;20076;-67
2021/12/03 02:49:15;;;;;;;8.63;3.58;;;;;;;;;;4990721;28;20309;-66
2021/12/03 02:51:43;;;;;;;11.70;3.58;;;;;;;;;;4989660;28;20475;-66
2021/12/03 02:54:10;;;;;;;11.65;4.07;;;;;;;;;;4990953;28;20459;-66
2021/12/03 02:56:35;;;;;;;8.57;3.17;;;;;;;;;;4990092;28;20363;-66
2021/12/03 02:59:01;;;;;;;9.25;3.42;;;;;;;;;;4989734;28;20375;-67
2021/12/03 03:01:27;;;;;;;6.85;2.97;;;;;;;;;;4989830;28;20454;-67
2021/12/03 03:03:52;;;;;;;10.45;3.50;;;;;;;;;;4989865;28;20325;-66
2021/12/03 03:06:17;;;;;;;9.63;3.20;;;;;;;;;;4989678;28;20416;-66
2021/12/03 03:08:44;;;;;;;11.60;3.72;;;;;;;;;;4988830;28;20424;-66
2021/12/03 03:11:10;;;;;;;8.18;3.13;;;;;;;;;;4989720;28;20506;-66
2021/12/03 03:13:37;;;;;;;6.35;3.20;;;;;;;;;;4989693;28;20321;-67
2021/12/03 03:16:03;;;;;;;6.40;2.67;;;;;;;;;;4989590;28;20454;-67
2021/12/03 03:18:29;;;;;;;8.45;3.33;;;;;;;;;;4971849;28;20455;-66
2021/12/03 03:20:59;;;;;;;9.48;2.80;;;;;;;;;;4989506;28;20467;-67
2021/12/03 03:23:24;;;;;;;8.35;3.35;;;;;;;;;;4989718;28;20509;-67
2021/12/03 03:25:50;;;;;;;8.13;3.45;;;;;;;;;;4989206;28;20428;-67
2021/12/03 03:28:16;;;;;;;7.20;2.58;;;;;;;;;;4989605;28;20436;-68
2021/12/03 03:30:44;;;;;;;5.65;2.67;;;;;;;;;;4971637;28;20343;-66
2021/12/03 03:33:13;;;;;;;7.80;2.50;;;;;;;;;;4989407;28;20096;-66
2021/12/03 03:35:38;;;;;;;8.53;3.67;;;;;;;;;;4989916;28;20355;-66
2021/12/03 03:38:04;;;;;;;8.60;3.47;;;;;;;;;;4989240;28;20295;-66
2021/12/03 03:40:30;;;;;;;6.03;2.42;;;;;;;;;;4989399;28;20468;-67
2021/12/03 03:42:57;;;;;;;6.97;2.92;;;;;;;;;;4971754;28;20468;-66
2021/12/03 03:45:23;;;;;;;8.23;2.75;;;;;;;;;;4989753;28;20420;-66
2021/12/03 03:47:49;;;;;;;9.90;3.30;;;;;;;;;;4971173;28;20475;-66
2021/12/03 03:50:16;;;;;;;8.68;3.13;;;;;;;;;;4988582;28;20375;-66
2021/12/03 03:52:43;;;;;;;8.00;3.08;;;;;;;;;;4989002;28;20435;-66
2021/12/03 03:55:11;;;;;;;5.35;2.67;;;;;;;;;;4971427;28;20426;-66
2021/12/03 03:57:36;;;;;;;5.22;2.42;;;;;;;;;;4990118;28;20367;-66
2021/12/03 04:00:05;;;;;;;7.47;2.67;;;;;;;;;;4989183;28;20305;-66
2021/12/03 04:02:30;;;;;;;9.18;3.40;;;;;;;;;;4971234;28;20043;-66
2021/12/03 04:04:55;;;;;;;6.30;2.70;;;;;;;;;;4989055;28;20440;-66
2021/12/03 04:07:21;;;;;;;4.50;2.75;;;;;;;;;;4989133;28;20128;-67
2021/12/03 04:09:46;;;;;;;5.35;2.38;;;;;;;;;;4989831;28;20333;-66
2021/12/03 04:12:11;;;;;;;4.65;2.63;;;;;;;;;;4989438;28;20116;-66
2021/12/03 04:14:38;;;;;;;4.40;1.98;;;;;;;;;;4989048;28;20483;-66
2021/12/03 04:17:04;;;;;;;7.55;2.80;;;;;;;;;;4971170;28;20490;-66
2021/12/03 04:19:29;;;;;;;9.10;2.70;;;;;;;;;;4991028;28;20416;-66
2021/12/03 04:21:55;;;;;;;3.88;2.20;;;;;;;;;;4992869;28;20566;-66
2021/12/03 04:24:20;;;;;;;6.55;2.42;;;;;;;;;;4992923;28;20024;-66
2021/12/03 04:26:46;;;;;;;5.80;2.63;;;;;;;;;;4993075;28;20415;-66
2021/12/03 04:29:11;;;;;;;4.88;2.30;;;;;;;;;;4992509;28;20475;-66
2021/12/03 04:31:36;;;;;;;9.52;2.70;;;;;;;;;;4992695;28;20455;-67
2021/12/03 04:34:02;;;;;;;7.75;3.08;;;;;;;;;;4993936;28;20025;-66
2021/12/03 04:36:27;;;;;;;6.18;2.63;;;;;;;;;;4992398;28;20405;-67
2021/12/03 04:38:52;;;;;;;4.93;2.42;;;;;;;;;;4992327;28;20130;-66
2021/12/03 04:41:18;;;;;;;5.88;2.42;;;;;;;;;;4992466;28;20423;-67
2021/12/03 04:43:44;;;;;;;4.22;2.10;;;;;;;;;;4992235;28;20415;-66
2021/12/03 04:46:09;;;;;;;5.47;2.08;;;;;;;;;;4993038;28;20444;-66
2021/12/03 04:48:34;;;;;;;3.60;1.98;;;;;;;;;;4992564;28;20523;-66
2021/12/03 04:51:00;;;;;;;4.82;2.67;;;;;;;;;;4992366;28;20440;-67
2021/12/03 04:53:25;;;;;;;5.40;2.50;;;;;;;;;;4992915;28;20451;-66
2021/12/03 04:55:51;;;;;;;4.95;2.22;;;;;;;;;;4974509;28;20501;-66
2021/12/03 04:58:17;;;;;;;6.43;2.33;;;;;;;;;;4992390;28;20364;-66
2021/12/03 05:00:45;;;;;;;6.05;2.17;;;;;;;;;;4992317;28;20450;-66
2021/12/03 05:03:11;;;;;;;4.72;2.08;;;;;;;;;;4992239;28;20098;-66
2021/12/03 05:05:39;;;;;;;7.05;2.50;;;;;;;;;;4992805;28;20424;-67
2021/12/03 05:08:07;;;;;;;5.95;2.13;;;;;;;;;;4991881;28;20424;-66
2021/12/03 05:10:34;;;;;;;3.92;2.13;;;;;;;;;;4974790;28;20332;-66
2021/12/03 05:13:15;;;;;;;6.72;1.85;;;;;;;;;;4992407;28;20060;-66
2021/12/03 05:15:41;;;;;;;5.35;2.10;;;;;;;;;;4992097;28;20017;-66
2021/12/03 05:18:08;;;;;;;6.18;2.33;;;;;;;;;;4992427;28;20459;-66
2021/12/03 05:20:34;;;;;;;4.65;2.10;;;;;;;;;;4991649;28;20313;-66
2021/12/03 05:23:00;;;;;;;4.55;2.28;;;;;;;;;;4992036;28;20029;-66
2021/12/03 05:25:26;;;;;;;5.10;1.90;;;;;;;;;;4992946;28;20363;-66
2021/12/03 05:27:52;;;;;;;3.50;2.35;;;;;;;;;;4992756;28;20490;-66
2021/12/03 05:30:18;;;;;;;7.28;2.20;;;;;;;;;;4991401;28;20391;-66
2021/12/03 05:32:43;;;;;;;4.03;1.83;;;;;;;;;;4991011;28;20409;-66
2021/12/03 05:35:09;;;;;;;6.55;2.08;;;;;;;;;;4991684;28;20371;-67
2021/12/03 05:37:35;;;;;;;6.35;1.98;;;;;;;;;;4991042;28;20426;-66
2021/12/03 05:40:02;;;;;;;5.55;2.33;;;;;;;;;;4973725;28;20025;-66
2021/12/03 05:42:28;;;;;;;3.65;1.75;;;;;;;;;;4991194;28;20351;-67
2021/12/03 05:44:54;;;;;;;4.60;1.50;;;;;;;;;;4991723;28;20097;-66
2021/12/03 05:47:19;;;;;;;4.10;1.98;;;;;;;;;;4991107;28;20471;-68
2021/12/03 05:49:44;;;;;;;4.97;1.75;;;;;;;;;;4991145;28;20388;-66
2021/12/03 05:52:10;;;;;;;4.38;1.90;;;;;;;;;;4955557;28;20423;-66
2021/12/03 05:54:35;;;;;;;4.32;1.52;;;;;;;;;;4972448;28;20487;-66
2021/12/03 05:57:00;;;;;;;6.05;1.77;;;;;;;;;;4971697;28;20503;-66
2021/12/03 05:59:27;;;;;;;4.60;2.13;;;;;;;;;;4971764;28;20463;-66
2021/12/03 06:01:52;;;;;;;5.18;1.85;;;;;;;;;;4971415;28;20392;-66
2021/12/03 06:04:18;;;;;;;5.03;2.15;;;;;;;;;;4971181;28;20062;-66
2021/12/03 06:06:43;;;;;;;8.18;2.05;;;;;;;;;;4953112;28;20033;-65
2021/12/03 06:09:08;;;;;;;6.30;2.00;;;;;;;;;;4971735;28;20399;-67
2021/12/03 06:11:34;;;;;;;6.88;1.90;;;;;;;;;;4972836;28;20343;-66
2021/12/03 06:13:59;;;;;;;5.43;2.40;;;;;;;;;;4971566;28;20026;-67
2021/12/03 06:16:24;;;;;;;4.40;1.40;;;;;;;;;;4971174;28;20325;-66
2021/12/03 06:18:50;;;;;;;7.57;2.03;;;;;;;;;;4971765;28;20403;-69
2021/12/03 06:21:15;;;;;;;3.75;1.85;;;;;;;;;;4972168;28;20443;-66
2021/12/03 06:23:41;;;;;;;3.50;1.40;;;;;;;;;;4971559;28;20388;-66
2021/12/03 06:26:07;;;;;;;3.40;2.22;;;;;;;;;;4970571;28;20057;-66
2021/12/03 06:28:34;;;;;;;4.35;1.67;;;;;;;;;;4970863;28;20395;-66
2021/12/03 06:30:59;;;;;;;5.45;2.25;;;;;;;;;;4970853;28;20025;-66
2021/12/03 06:33:25;;;;;;;7.10;2.45;;;;;;;;;;4970761;28;20424;-66
2021/12/03 06:35:50;;;;;;;3.80;1.95;;;;;;;;;;4970420;28;20441;-66
2021/12/03 06:38:16;;;;;;;3.10;1.77;;;;;;;;;;4972108;28;20025;-67
2021/12/03 06:40:42;;;;;;;5.10;1.90;;;;;;;;;;4972603;28;20443;-66
2021/12/03 06:43:07;;;;;;;3.72;1.90;;;;;;;;;;4971655;28;20087;-66
2021/12/03 06:45:33;;;;;;;5.32;2.03;;;;;;;;;;4970921;28;20332;-66
2021/12/03 06:47:58;;;;;;;5.80;1.55;;;;;;;;;;4971252;28;20377;-66
2021/12/03 06:50:24;;;;;;;5.00;1.77;;;;;;;;;;4952806;28;20163;-66
2021/12/03 06:53:06;;;;;;;6.63;1.85;;;;;;;;;;4971169;28;20352;-66
2021/12/03 06:55:44;;;;;;;4.50;2.45;;;;;;;;;;4970434;28;20341;-66
2021/12/03 06:58:10;;;;;;;3.45;1.60;;;;;;;;;;4970142;28;20479;-66
2021/12/03 07:00:36;;;;;;;3.10;1.48;;;;;;;;;;4970151;28;20488;-68
2021/12/03 07:03:01;;;;;;;2.28;1.40;;;;;;;;;;4970270;28;20064;-66
2021/12/03 07:05:27;;;;;;;3.45;1.60;;;;;;;;;;4969921;28;20432;-67
2021/12/03 07:07:52;;;;;;;3.38;1.60;;;;;;;;;;4970279;28;20428;-66
2021/12/03 07:10:17;;;;;;;2.95;1.52;;;;;;;;;;4971279;28;20025;-66
2021/12/03 07:12:43;;;;;;;5.00;1.60;;;;;;;;;;4970264;28;20029;-66
2021/12/03 07:15:09;;;;;;;3.63;1.83;;;;;;;;;;4971429;28;20491;-66
2021/12/03 07:17:34;;;;;;;3.75;1.95;;;;;;;;;;4970397;28;20059;-66
2021/12/03 07:20:01;;;;;;;4.53;2.05;;;;;;;;;;4969895;28;20425;-66
2021/12/03 07:22:29;;;;;;;7.25;1.85;;;;;;;;;;4969999;28;20428;-66
2021/12/03 07:24:54;;;;;;;5.43;1.70;;;;;;;;;;4970282;28;20411;-66
2021/12/03 07:27:20;;;;;;;3.90;1.58;;;;;;;;;;4969630;28;20353;-67
2021/12/03 07:29:50;;;;;;;2.83;1.70;;;;;;;;;;4953142;28;20384;-66
2021/12/03 07:32:17;;;;;;;3.05;1.50;;;;;;;;;;4969963;28;20038;-66
2021/12/03 07:34:43;;;;;;;2.58;1.48;;;;;;;;;;4952105;28;20451;-66
2021/12/03 07:37:08;;;;;;;5.00;1.60;;;;;;;;;;4971149;28;20347;-66
2021/12/03 07:39:34;;;;;;;4.93;1.45;;;;;;;;;;4952207;28;20325;-66
2021/12/03 07:41:59;;;;;;;2.15;1.40;;;;;;;;;;4969224;28;20088;-66
2021/12/03 07:44:24;;;;;;;3.70;1.85;;;;;;;;;;4969492;28;20401;-66
2021/12/03 07:46:50;;;;;;;3.80;1.27;;;;;;;;;;4969686;28;20033;-66
2021/12/03 07:49:15;;;;;;;5.63;1.70;;;;;;;;;;4970566;28;20298;-66
2021/12/03 07:51:41;;;;;;;3.28;1.40;;;;;;;;;;4982783;28;20468;-65
2021/12/03 07:54:06;;;;;;;5.78;1.60;;;;;;;;;;4971136;28;20605;-66
2021/12/03 07:56:31;;;;;;;3.75;1.70;;;;;;;;;;4989015;28;20037;-67
2021/12/03 07:58:57;;;;;;;6.88;1.80;;;;;;;;;;4989381;28;20175;-66
2021/12/03 08:01:24;;;;;;;4.18;1.70;;;;;;;;;;4990334;28;20330;-66
2021/12/03 08:03:49;;;;;;;6.03;2.10;;;;;;;;;;4988841;28;20551;-66
2021/12/03 08:06:15;;;;;;;3.55;1.58;;;;;;;;;;4989288;28;20351;-66
2021/12/03 08:08:41;;;;;;;2.80;1.77;;;;;;;;;;4971799;28;21192;-67
2021/12/03 08:11:07;;;;;;;2.38;1.42;;;;;;;;;;4987406;28;20461;-67
2021/12/03 08:13:33;;;;;;;4.43;1.88;;;;;;;;;;4989143;28;20419;-66
2021/12/03 08:15:59;;;;;;;3.55;1.67;;;;;;;;;;4989895;28;20523;-67
2021/12/03 08:18:25;;;;;;;5.00;1.80;;;;;;;;;;4988633;28;20448;-66
2021/12/03 08:20:50;;;;;;;4.00;1.90;;;;;;;;;;4990041;28;20347;-67
2021/12/03 08:23:15;;;;;;;5.00;1.83;;;;;;;;;;4970904;28;20382;-66
2021/12/03 08:25:41;;;;;;;5.07;1.80;;;;;;;;;;4989890;28;20355;-66
2021/12/03 08:28:07;;;;;;;3.45;1.48;;;;;;;;;;4988785;28;20336;-66
2021/12/03 08:30:32;;;;;;;3.13;1.80;;;;;;;;;;4989130;28;20454;-66
2021/12/03 08:32:58;;;;;;;3.35;1.17;;;;;;;;;;4988671;28;20431;-67
2021/12/03 08:35:24;;;;;;;2.97;1.30;;;;;;;;;;4971651;28;20387;-65
2021/12/03 08:37:50;;;;;;;5.25;1.45;;;;;;;;;;4989538;28;20301;-68
2021/12/03 08:40:20;;;;;;;4.18;1.58;;;;;;;;;;4988541;28;20390;-66
2021/12/03 08:42:46;;;;;;;6.43;1.40;;;;;;;;;;4988899;28;20033;-66
2021/12/03 08:45:12;;;;;;;3.58;1.70;;;;;;;;;;4989999;28;20099;-66
2021/12/03 08:47:39;;;;;;;4.50;2.70;;;;;;;;;;4989291;28;20443;-66
2021/12/03 08:50:11;;;;;;;3.28;1.52;;;;;;;;;;4988386;28;20486;-66
2021/12/03 08:52:51;;;;;;;3.22;1.65;;;;;;;;;;4989812;28;20416;-66
2021/12/03 08:55:17;;;;;;;3.22;1.48;;;;;;;;;;4988279;28;20472;-66
2021/12/03 08:57:42;;;;;;;3.53;1.75;;;;;;;;;;4988246;28;20516;-66
2021/12/03 09:00:11;;;;;;;3.72;1.95;;;;;;;;;;4988252;28;20387;-66
2021/12/03 09:02:36;;;;;;;3.63;1.63;;;;;;;;;;4988574;28;20467;-67
2021/12/03 09:05:02;;;;;;;2.95;1.65;;;;;;;;;;4988534;28;20512;-66
2021/12/03 09:07:27;;;;;;;2.97;1.73;;;;;;;;;;4991992;28;20348;-67
2021/12/03 09:09:52;;;;;;;4.72;1.52;;;;;;;;;;4992913;28;20021;-67
2021/12/03 09:12:18;;;;;;;4.03;1.92;;;;;;;;;;4974125;28;20511;-66
2021/12/03 09:14:47;;;;;;;3.00;1.50;;;;;;;;;;4991928;28;20467;-66
2021/12/03 09:19:45;;;;;;;4.80;2.20;;;;;;;;;;4990239;28;20028;-66
2021/12/03 09:22:16;;;;;;;3.05;1.60;;;;;;;;;;4992134;28;20406;-66
2021/12/03 09:24:41;;;;;;;3.50;1.58;;;;;;;;;;4974944;28;20464;-67
2021/12/03 09:27:07;;;;;;;5.18;1.80;;;;;;;;;;4991832;28;20396;-66
2021/12/03 09:29:34;;;;;;;3.33;1.60;;;;;;;;;;4991542;28;20400;-68
2021/12/03 09:32:00;;;;;;;5.10;1.50;;;;;;;;;;4991469;28;20122;-66
2021/12/03 09:34:30;;;;;;;4.80;1.60;;;;;;;;;;4991614;28;20506;-66
2021/12/03 09:36:55;;;;;;;3.85;1.90;;;;;;;;;;4992248;28;20393;-66
2021/12/03 09:39:23;;;;;;;4.20;1.55;;;;;;;;;;4991378;28;20379;-66
2021/12/03 09:41:50;;;;;;;6.65;2.10;;;;;;;;;;4989921;28;20344;-66
2021/12/03 09:44:16;;;;;;;2.90;1.33;;;;;;;;;;4992822;28;20371;-66
2021/12/03 09:46:42;;;;;;;2.35;1.55;;;;;;;;;;4991691;28;20444;-66
2021/12/03 09:51:39;;;;;;;3.83;1.70;;;;;;;;;;4991425;28;20495;-66
2021/12/03 09:56:33;;;;;;;2.63;1.55;;;;;;;;;;4992252;28;20458;-66
2021/12/03 10:12:36;;;;;;;3.17;2.00;;;;;;;;;;4990919;28;20352;-66
2021/12/03 10:15:12;;;;;;;4.93;1.88;;;;;;;;;;4992332;28;20463;-66
2021/12/03 10:21:15;;;;;;;3.78;1.98;;;;;;;;;;4992246;28;20356;-66
2021/12/03 10:44:46;;;;;;;5.72;2.17;;;;;;;;;;4990425;28;20462;-67
2021/12/03 10:47:24;;;;;;;3.92;1.70;;;;;;;;;;4976476;28;20428;-67
2021/12/03 10:53:11;;;;;;;;;;;;;;;;;;4991453;28;20408;-67
2021/12/03 11:06:47;;;;;;;4.35;1.90;;;;;;;;;;4990880;28;20388;-66
2021/12/03 11:12:41;;;;;;;4.10;2.10;;;;;;;;;;4991325;28;20474;-66
2021/12/03 11:29:08;;;;;;;6.13;2.47;;;;;;;;;;4989323;28;20372;-67
2021/12/03 11:36:43;;;;;;;5.93;2.47;;;;;;;;;;4974825;28;20455;-67
2021/12/03 11:56:53;;;;;;;10.32;3.08;;;;;;;;;;4969472;28;20183;-67
2021/12/03 12:33:05;;;;;;;6.68;3.03;;;;;;;;;;4969477;28;20318;-66
2021/12/03 12:39:15;;;;;;;9.88;2.55;;;;;;;;;;4970173;28;20487;-66
2021/12/03 12:44:35;;;;;;;7.78;3.33;;;;;;;;;;4957669;28;20614;-67
2021/12/03 12:59:37;;;;;;;10.65;3.45;;;;;;;;;;4868820;28;20355;-67
2021/12/03 13:13:11;;;;;;;7.95;4.25;;;;;;;;;;4928287;28;20471;-67
2021/12/03 13:27:20;;;;;;;5.85;3.40;;;;;;;;;;4971995;28;20095;-67
2021/12/03 14:02:02;;;;;;;10.20;4.22;;;;;;;;;;4971455;28;20100;-66
2021/12/03 14:52:06;;;;;;;15.85;7.38;;;;;;;;;;4948816;28;20492;-66
2021/12/03 14:57:11;;;;;;;15.95;6.95;;;;;;;;;;4950769;28;20341;-66
2021/12/03 14:59:39;;;;;;;18.52;7.28;;;;;;;;;;4951103;28;20361;-66
2021/12/03 15:02:28;;;;;;;19.13;6.72;;;;;;;;;;4950542;28;20322;-66
2021/12/03 15:07:48;;;;;;;13.38;6.30;;;;;;;;;;4950879;28;20408;-66
2021/12/03 15:10:26;;;;;;;15.13;7.28;;;;;;;;;;4950990;28;20373;-66
2021/12/03 15:23:27;;;;;;;18.00;7.72;;;;;;;;;;4951602;28;20062;-66
2021/12/03 15:31:45;;;;;;;14.95;7.63;;;;;;;;;;4951420;28;20052;-66
2021/12/03 15:36:39;;;;;;;22.40;8.80;;;;;;;;;;4950162;28;20400;-66
2021/12/03 15:51:52;;;;;;;19.33;8.40;;;;;;;;;;4950883;28;20504;-66
2021/12/03 15:55:58;;;;;;;31.10;13.02;;;;;;;;;;4951026;28;20429;-66
2021/12/03 15:58:34;;;;;;;25.45;11.63;;;;;;;;;;4949737;28;20034;-66
2021/12/03 16:03:51;;;;;;;32.08;12.32;;;;;;;;;;4949797;28;20464;-66
2021/12/03 16:08:44;;;;;;;29.25;12.25;;;;;;;;;;4952150;28;20038;-67
2021/12/03 16:11:22;;;;;;;35.90;15.43;;;;;;;;;;4949997;28;20402;-66
2021/12/03 16:13:54;;;;;;;27.90;12.85;;;;;;;;;;4950777;28;20509;-66
2021/12/03 16:21:49;;;;;;;35.70;14.82;;;;;;;;;;4953457;28;20348;-65
2021/12/03 16:54:11;;;;;;;35.05;14.20;;;;;;;;;;4973785;28;20459;-66
2021/12/03 16:56:43;;;;;;;33.60;14.32;;;;;;;;;;4972709;28;20420;-65
2021/12/03 16:59:08;;;;;;;29.05;12.82;;;;;;;;;;4955829;28;20333;-65
2021/12/03 17:01:42;;;;;;;37.40;16.65;;;;;;;;;;4972568;28;20364;-66
2021/12/03 17:23:14;;;;;;;35.55;14.13;;;;;;;;;;4972182;28;20534;-65
2021/12/03 17:26:17;;;;;;;35.20;14.65;;;;;;;;;;4972013;28;20392;-66
2021/12/03 17:31:23;;;;;;;36.70;15.10;;;;;;;;;;4971619;28;20329;-65
2021/12/03 17:47:38;;;;;;;33.33;14.68;;;;;;;;;;4971774;28;20486;-65
2021/12/03 17:50:12;;;;;;;40.92;16.55;;;;;;;;;;4971582;28;20419;-65
2021/12/03 18:00:33;;;;;;;39.78;16.58;;;;;;;;;;4973300;28;20451;-67
2021/12/03 18:03:08;;;;;;;41.13;14.32;;;;;;;;;;4971494;28;20029;-65
2021/12/03 18:05:56;;;;;;;32.38;15.90;;;;;;;;;;4971355;28;20488;-65
2021/12/03 18:16:36;;;;;;;36.20;16.20;;;;;;;;;;4971695;28;20480;-65
2021/12/03 18:43:42;;;;;;;31.10;15.23;;;;;;;;;;4970891;28;20357;-65
2021/12/03 18:54:36;;;;;;;40.55;17.35;;;;;;;;;;4890821;29;20463;-65
2021/12/03 18:57:25;;;;;;;38.88;15.60;;;;;;;;;;4924392;28;20411;-65
2021/12/03 18:59:56;;;;;;;45.38;16.35;;;;;;;;;;4950631;28;20056;-65
2021/12/03 19:02:24;;;;;;;45.40;16.30;;;;;;;;;;4951000;28;20026;-66
2021/12/03 19:04:53;;;;;;;37.25;15.40;;;;;;;;;;4950423;28;20433;-66
2021/12/03 19:07:29;;;;;;;37.10;17.13;;;;;;;;;;4950308;28;20433;-65
2021/12/03 19:09:58;;;;;;;43.58;16.10;;;;;;;;;;4965480;28;20338;-65
2021/12/03 19:12:26;;;;;;;36.30;16.35;;;;;;;;;;4950323;28;20037;-66
2021/12/03 19:15:00;;;;;;;39.00;15.32;;;;;;;;;;4949332;28;20464;-65
2021/12/03 19:17:25;;;;;;;42.28;17.00;;;;;;;;;;4950396;28;20336;-65
2021/12/03 19:19:56;;;;;;;41.72;19.20;;;;;;;;;;4949415;28;20336;-65
2021/12/03 19:22:22;;;;;;;42.85;17.30;;;;;;;;;;4950459;28;20512;-65
2021/12/03 19:24:48;;;;;;;41.63;18.27;;;;;;;;;;4950406;28;20459;-65
2021/12/03 19:27:14;;;;;;;38.88;17.70;;;;;;;;;;4950749;28;20433;-65
2021/12/03 19:29:42;;;;;;;36.75;15.65;;;;;;;;;;4950427;28;20329;-65
2021/12/03 19:32:08;;;;;;;34.53;14.77;;;;;;;;;;4950431;28;20433;-65
2021/12/03 19:34:33;;;;;;;45.80;17.13;;;;;;;;;;4950610;28;20452;-65
2021/12/03 19:36:59;;;;;;;34.05;14.90;;;;;;;;;;4950079;28;20329;-65
2021/12/03 19:39:25;;;;;;;41.47;16.52;;;;;;;;;;4949975;28;20373;-65
2021/12/03 19:41:59;;;;;;;35.00;16.80;;;;;;;;;;4950231;28;20376;-65
2021/12/03 19:44:45;;;;;;;45.30;16.92;;;;;;;;;;4950181;28;20391;-65
2021/12/03 19:47:12;;;;;;;43.20;15.82;;;;;;;;;;4950078;28;20425;-65
2021/12/03 19:52:28;;;;;;;43.08;17.48;;;;;;;;;;4965654;28;20107;-65
2021/12/03 19:54:55;;;;;;;48.25;17.40;;;;;;;;;;4969567;28;20052;-65
2021/12/03 19:57:25;;;;;;;44.08;17.45;;;;;;;;;;4969417;28;20041;-65
2021/12/03 19:59:51;;;;;;;45.45;16.10;;;;;;;;;;4969208;28;20353;-67
2021/12/03 20:02:17;;;;;;;41.72;16.88;;;;;;;;;;4969472;28;20494;-65
2021/12/03 20:04:43;;;;;;;35.08;16.17;;;;;;;;;;4969467;28;20504;-66
2021/12/03 20:07:08;;;;;;;36.95;17.08;;;;;;;;;;4970733;28;20424;-65
2021/12/03 20:09:40;;;;;;;41.65;17.02;;;;;;;;;;4969420;28;20436;-65
2021/12/03 20:12:11;;;;;;;46.78;16.73;;;;;;;;;;4969242;28;20514;-65
2021/12/03 20:14:37;;;;;;;40.03;16.13;;;;;;;;;;4969209;28;20404;-65
2021/12/03 20:17:16;;;;;;;47.40;19.55;;;;;;;;;;4969857;28;20091;-65
2021/12/03 20:19:46;;;;;;;47.35;17.27;;;;;;;;;;4969269;28;20364;-65
2021/12/03 20:22:26;;;;;;;49.75;19.13;;;;;;;;;;4951946;28;20037;-65
2021/12/03 20:25:15;;;;;;;42.50;18.70;;;;;;;;;;4970675;28;20448;-65
2021/12/03 20:27:43;;;;;;;53.95;21.23;;;;;;;;;;4954578;28;20064;-65
2021/12/03 20:30:52;;;;;;;46.55;20.45;;;;;;;;;;4969231;28;20455;-65
2021/12/03 20:33:05;;;;;;;47.53;20.00;;;;;;;;;;4953481;28;20375;-65
2021/12/03 20:35:57;;;;;;;45.83;17.92;;;;;;;;;;4968751;28;20325;-65
2021/12/03 20:38:24;;;;;;;57.55;20.63;;;;;;;;;;4968904;28;20462;-65
2021/12/03 20:40:55;;;;;;;42.88;18.13;;;;;;;;;;4969141;28;20376;-65
2021/12/03 20:43:32;;;;;;;50.95;18.75;;;;;;;;;;4968932;28;20330;-65
2021/12/03 20:46:22;;;;;;;47.28;18.80;;;;;;;;;;4969010;28;20133;-64
2021/12/03 20:51:52;;;;;;;45.30;18.15;;;;;;;;;;4969086;28;20391;-65
2021/12/03 20:54:33;;;;;;;52.67;20.27;;;;;;;;;;4969076;28;20356;-65
2021/12/03 21:10:53;;;;;;;49.58;19.98;;;;;;;;;;4941820;28;20487;-64
2021/12/03 21:13:25;;;;;;;47.38;17.95;;;;;;;;;;4972955;28;20443;-64
2021/12/03 21:18:31;;;;;;;43.47;16.63;;;;;;;;;;4971851;28;20444;-65
2021/12/03 21:21:03;;;;;;;45.90;17.83;;;;;;;;;;4972570;28;20029;-65
2021/12/03 21:23:33;;;;;;;45.70;17.05;;;;;;;;;;4971958;28;20425;-65
2021/12/03 21:25:58;;;;;;;49.47;17.98;;;;;;;;;;4957784;28;20365;-65
2021/12/03 21:41:26;;;;;;;40.13;16.08;;;;;;;;;;4952353;28;20365;-65
2021/12/03 21:43:58;;;;;;;45.53;16.55;;;;;;;;;;4953784;28;20030;-65
2021/12/03 21:46:25;;;;;;;47.97;17.48;;;;;;;;;;4951995;28;20357;-65
2021/12/03 21:48:52;;;;;;;41.28;17.63;;;;;;;;;;4952271;28;20034;-65
2021/12/03 21:51:19;;;;;;;37.88;14.70;;;;;;;;;;4951348;28;20358;-64
2021/12/03 21:53:44;;;;;;;44.72;18.25;;;;;;;;;;4951451;28;20041;-65
2021/12/03 21:56:10;;;;;;;37.65;15.63;;;;;;;;;;4951998;28;20457;-64
2021/12/03 21:58:36;;;;;;;33.17;14.82;;;;;;;;;;4951893;28;20041;-64
2021/12/03 22:01:01;;;;;;;34.75;14.25;;;;;;;;;;4952867;28;20425;-65
2021/12/03 22:03:26;;;;;;;38.60;15.20;;;;;;;;;;4951599;28;20448;-65
2021/12/03 22:05:53;;;;;;;36.75;14.23;;;;;;;;;;4953659;28;20453;-64
2021/12/03 22:08:19;;;;;;;31.58;13.48;;;;;;;;;;4951498;28;20038;-65
2021/12/03 22:10:44;;;;;;;37.25;13.20;;;;;;;;;;4952232;28;20528;-64